Metar z połowy godziny Komunikat METAR ze strony awiacja.imgw.pl Metar G00 EPWA METAR EPWA 271330Z 26008KT 9999 SCT011 BKN023 02/01 Q0995 TEMPO BKN009=